createdAt,value
2022-10-22T00:00:43.548Z,10.25
2022-10-22T00:03:10.620Z,9.70
2022-10-22T00:05:37.670Z,10.43
2022-10-22T00:08:04.774Z,10.18
2022-10-22T00:10:32.065Z,8.30
2022-10-22T00:12:59.219Z,8.90
2022-10-22T00:15:26.307Z,9.63
2022-10-22T00:17:53.389Z,9.73
2022-10-22T00:20:20.562Z,9.32
2022-10-22T00:22:47.673Z,10.60
2022-10-22T00:25:15.269Z,9.55
2022-10-22T00:27:42.841Z,10.23
2022-10-22T00:30:10.706Z,10.10
2022-10-22T00:32:38.312Z,9.48
2022-10-22T00:35:07.035Z,9.85
2022-10-22T00:37:34.010Z,10.18
2022-10-22T00:40:01.244Z,9.52
2022-10-22T00:42:30.457Z,9.35
2022-10-22T00:45:04.763Z,9.20
2022-10-22T00:47:37.870Z,8.95
2022-10-22T00:50:09.573Z,9.57
2022-10-22T00:52:37.256Z,8.82
2022-10-22T00:55:05.449Z,7.95
2022-10-22T00:57:34.530Z,8.65
2022-10-22T01:00:02.149Z,8.55
2022-10-22T01:02:31.034Z,9.63
2022-10-22T01:04:58.193Z,8.98
2022-10-22T01:07:26.338Z,7.90
2022-10-22T01:10:00.033Z,7.95
2022-10-22T01:12:46.382Z,8.57
2022-10-22T01:15:25.003Z,8.30
2022-10-22T01:17:52.101Z,7.60
2022-10-22T01:20:30.812Z,7.63
2022-10-22T01:23:22.425Z,7.85
2022-10-22T01:26:06.828Z,8.30
2022-10-22T01:28:54.513Z,8.02
2022-10-22T01:31:24.013Z,8.20
2022-10-22T01:33:54.832Z,8.13
2022-10-22T01:38:50.113Z,9.40
2022-10-22T01:41:17.718Z,9.10
2022-10-22T01:43:44.768Z,9.60
2022-10-22T01:46:13.617Z,10.82
2022-10-22T01:49:05.476Z,10.27
2022-10-22T01:51:53.099Z,10.18
2022-10-22T01:54:29.947Z,11.23
2022-10-22T01:57:19.708Z,12.10
2022-10-22T02:00:06.288Z,12.32
2022-10-22T02:02:43.755Z,13.07
2022-10-22T02:05:25.549Z,12.63
2022-10-22T02:07:56.136Z,13.07
2022-10-22T02:10:24.979Z,13.77
2022-10-22T02:12:55.175Z,14.10
2022-10-22T02:15:45.402Z,14.63
2022-10-22T02:18:14.526Z,14.13
2022-10-22T02:20:42.650Z,13.85
2022-10-22T02:23:10.746Z,13.18
2022-10-22T02:25:42.176Z,13.13
2022-10-22T02:28:38.511Z,13.60
2022-10-22T02:31:15.909Z,13.98
2022-10-22T02:33:47.821Z,12.73
2022-10-22T02:36:17.717Z,11.45
2022-10-22T02:38:48.191Z,9.57
2022-10-22T02:41:16.977Z,9.95
2022-10-22T02:43:51.407Z,11.25
2022-10-22T02:46:18.506Z,9.68
2022-10-22T02:48:45.593Z,10.48
2022-10-22T02:51:12.768Z,9.95
2022-10-22T02:53:39.932Z,9.65
2022-10-22T02:56:07.243Z,10.52
2022-10-22T02:58:34.452Z,9.90
2022-10-22T03:01:01.767Z,10.90
2022-10-22T03:03:28.924Z,9.93
2022-10-22T03:05:55.949Z,9.43
2022-10-22T03:08:23.102Z,10.10
2022-10-22T03:10:50.197Z,8.80
2022-10-22T03:13:17.297Z,10.40
2022-10-22T03:15:44.329Z,9.95
2022-10-22T03:18:11.469Z,9.95
2022-10-22T03:20:38.448Z,9.80
2022-10-22T03:23:05.861Z,9.75
2022-10-22T03:25:34.713Z,9.50
2022-10-22T03:28:05.384Z,9.13
2022-10-22T03:32:59.616Z,9.18
2022-10-22T03:35:27.046Z,9.10
2022-10-22T03:37:55.016Z,9.60
2022-10-22T03:40:22.352Z,10.35
2022-10-22T03:42:49.417Z,9.88
2022-10-22T03:45:16.683Z,10.23
2022-10-22T03:47:43.815Z,9.45
2022-10-22T03:50:10.922Z,9.52
2022-10-22T03:52:40.141Z,10.20
2022-10-22T03:55:08.715Z,9.65
2022-10-22T03:57:36.009Z,9.75
2022-10-22T04:00:05.972Z,9.88
2022-10-22T04:02:33.115Z,9.97
2022-10-22T04:05:01.165Z,9.75
2022-10-22T04:07:28.937Z,10.35
2022-10-22T04:09:56.342Z,9.73
2022-10-22T04:12:23.347Z,9.40
2022-10-22T04:14:50.492Z,11.18
2022-10-22T04:17:17.650Z,10.65
2022-10-22T04:19:45.566Z,10.48
2022-10-22T04:22:12.694Z,10.27
2022-10-22T04:24:39.792Z,9.80
2022-10-22T04:27:07.748Z,10.75
2022-10-22T04:29:34.850Z,10.32
2022-10-22T04:32:02.000Z,9.43
2022-10-22T04:34:29.300Z,11.23
2022-10-22T04:36:56.884Z,11.23
2022-10-22T04:39:23.996Z,10.25
2022-10-22T04:41:51.086Z,10.55
2022-10-22T04:44:18.324Z,11.05
2022-10-22T04:46:46.121Z,10.30
2022-10-22T04:49:13.252Z,11.27
2022-10-22T04:51:40.532Z,9.82
2022-10-22T04:54:08.191Z,10.68
2022-10-22T04:56:35.812Z,10.90
2022-10-22T04:59:07.189Z,11.13
2022-10-22T05:01:42.723Z,11.45
2022-10-22T05:04:16.285Z,10.23
2022-10-22T05:06:44.352Z,10.13
2022-10-22T05:09:17.481Z,10.48
2022-10-22T05:11:48.802Z,10.45
2022-10-22T05:14:20.037Z,9.52
2022-10-22T05:16:48.997Z,8.60
2022-10-22T05:19:24.251Z,9.73
2022-10-22T05:21:52.874Z,10.00
2022-10-22T05:24:19.957Z,10.07
2022-10-22T05:26:50.658Z,9.68
2022-10-22T05:31:44.838Z,9.77
2022-10-22T05:34:12.041Z,11.18
2022-10-22T05:36:39.906Z,9.38
2022-10-22T05:39:07.439Z,9.57
2022-10-22T05:41:38.332Z,10.20
2022-10-22T05:44:06.091Z,9.52
2022-10-22T05:46:36.872Z,9.43
2022-10-22T05:49:06.170Z,9.05
2022-10-22T05:51:35.758Z,10.40
2022-10-22T05:54:05.130Z,10.60
2022-10-22T05:56:32.904Z,9.70
2022-10-22T05:59:01.049Z,9.88
2022-10-22T06:01:30.819Z,10.13
2022-10-22T06:04:00.619Z,9.45
2022-10-22T06:06:34.907Z,9.40
2022-10-22T06:09:07.068Z,11.40
2022-10-22T06:11:35.290Z,10.80
2022-10-22T06:14:04.184Z,11.15
2022-10-22T06:16:32.160Z,11.88
2022-10-22T06:19:02.217Z,11.32
2022-10-22T06:21:30.758Z,10.45
2022-10-22T06:23:58.937Z,11.55
2022-10-22T06:26:26.695Z,11.23
2022-10-22T06:28:55.825Z,11.95
2022-10-22T06:31:23.488Z,10.27
2022-10-22T06:33:50.611Z,10.70
2022-10-22T06:36:23.084Z,9.45
2022-10-22T06:38:54.895Z,10.32
2022-10-22T06:41:25.750Z,8.77
2022-10-22T06:43:57.886Z,9.95
2022-10-22T06:46:26.305Z,9.25
2022-10-22T06:48:59.014Z,9.60
2022-10-22T06:51:27.402Z,8.85
2022-10-22T06:53:58.108Z,9.13
2022-10-22T06:56:27.652Z,9.50
2022-10-22T06:58:56.953Z,9.85
2022-10-22T07:01:30.700Z,10.25
2022-10-22T07:03:58.687Z,10.25
2022-10-22T07:06:28.324Z,9.40
2022-10-22T07:08:57.279Z,10.23
2022-10-22T07:11:30.478Z,9.85
2022-10-22T07:14:00.183Z,9.88
2022-10-22T07:16:31.055Z,10.38
2022-10-22T07:19:00.698Z,10.50
2022-10-22T07:21:28.246Z,10.50
2022-10-22T07:23:55.409Z,9.98
2022-10-22T07:26:25.031Z,9.18
2022-10-22T07:28:52.146Z,9.65
2022-10-22T07:31:19.891Z,10.13
2022-10-22T07:33:46.881Z,8.98
2022-10-22T07:36:18.039Z,9.23
2022-10-22T07:38:53.233Z,9.27
2022-10-22T07:41:20.274Z,8.63
2022-10-22T07:43:47.217Z,9.60
2022-10-22T07:46:14.195Z,9.15
2022-10-22T07:48:41.389Z,9.05
2022-10-22T07:51:08.682Z,9.90
2022-10-22T07:53:35.999Z,9.50
2022-10-22T07:56:03.184Z,9.75
2022-10-22T07:58:30.504Z,9.90
2022-10-22T08:01:00.908Z,9.07
2022-10-22T08:03:29.181Z,9.82
2022-10-22T08:05:56.204Z,9.10
2022-10-22T08:08:25.921Z,8.82
2022-10-22T08:10:58.826Z,9.48
2022-10-22T08:13:26.496Z,10.70
2022-10-22T08:15:57.260Z,11.25
2022-10-22T08:18:25.355Z,10.45
2022-10-22T08:20:52.997Z,8.77
2022-10-22T08:23:24.400Z,8.95
2022-10-22T08:25:54.657Z,10.10
2022-10-22T08:28:22.370Z,8.25
2022-10-22T08:30:49.631Z,7.85
2022-10-22T08:33:16.775Z,9.10
2022-10-22T08:35:48.603Z,10.05
2022-10-22T08:38:15.684Z,8.57
2022-10-22T08:40:44.476Z,8.93
2022-10-22T08:43:41.956Z,9.20
2022-10-22T08:46:17.639Z,9.00
2022-10-22T08:48:52.795Z,9.35
2022-10-22T08:51:24.036Z,9.18
2022-10-22T08:54:21.875Z,9.18
2022-10-22T08:57:09.698Z,9.52
2022-10-22T08:59:50.734Z,10.27
2022-10-22T09:02:33.775Z,9.18
2022-10-22T09:05:22.847Z,9.68
2022-10-22T09:07:50.655Z,9.32
2022-10-22T09:10:21.979Z,9.43
2022-10-22T09:12:49.118Z,8.70
2022-10-22T09:15:18.441Z,7.82
2022-10-22T09:18:31.222Z,8.02
2022-10-22T09:21:29.304Z,8.10
2022-10-22T09:24:04.940Z,8.38
2022-10-22T09:26:35.624Z,8.98
2022-10-22T09:29:04.208Z,9.52
2022-10-22T09:31:33.569Z,8.40
2022-10-22T09:34:06.221Z,7.85
2022-10-22T09:36:34.512Z,7.43
2022-10-22T09:39:01.618Z,9.13
2022-10-22T09:41:30.157Z,7.90
2022-10-22T09:43:58.416Z,8.18
2022-10-22T09:46:30.167Z,8.65
2022-10-22T09:49:06.865Z,7.30
2022-10-22T09:51:52.088Z,8.57
2022-10-22T09:54:21.857Z,7.82
2022-10-22T09:57:03.028Z,7.78
2022-10-22T09:59:33.460Z,8.80
2022-10-22T10:02:20.108Z,8.55
2022-10-22T10:04:57.791Z,9.05
2022-10-22T10:07:27.390Z,8.68
2022-10-22T10:09:55.008Z,8.05
2022-10-22T10:15:27.832Z,6.75
2022-10-22T10:18:08.790Z,7.03
2022-10-22T10:20:41.037Z,7.05
2022-10-22T10:23:25.481Z,6.88
2022-10-22T10:26:19.891Z,7.05
2022-10-22T10:29:04.841Z,6.75
2022-10-22T10:31:53.087Z,7.05
2022-10-22T10:34:58.415Z,7.25
2022-10-22T10:37:38.640Z,6.63
2022-10-22T10:40:20.752Z,6.38
2022-10-22T10:43:06.705Z,6.45
2022-10-22T10:46:00.655Z,5.57
2022-10-22T10:48:46.368Z,5.45
2022-10-22T10:51:39.521Z,5.68
2022-10-22T10:54:24.342Z,5.18
2022-10-22T10:57:02.482Z,5.35
2022-10-22T10:59:59.082Z,5.05
2022-10-22T11:02:45.355Z,5.28
2022-10-22T11:05:39.378Z,4.70
2022-10-22T11:08:21.432Z,5.75
2022-10-22T11:11:03.556Z,6.03
2022-10-22T11:13:46.132Z,6.07
2022-10-22T11:17:04.030Z,6.25
2022-10-22T11:19:50.877Z,5.78
2022-10-22T11:22:27.272Z,7.45
2022-10-22T11:25:01.473Z,6.57
2022-10-22T11:27:39.250Z,6.05
2022-10-22T11:30:15.303Z,7.32
2022-10-22T11:32:44.599Z,7.53
2022-10-22T11:35:25.842Z,7.18
2022-10-22T11:37:56.017Z,6.57
2022-10-22T11:40:46.693Z,6.97
2022-10-22T11:43:35.989Z,6.45
2022-10-22T11:46:08.952Z,6.57
2022-10-22T11:48:38.388Z,6.35
2022-10-22T11:51:44.128Z,5.88
2022-10-22T11:54:37.432Z,6.38
2022-10-22T11:57:38.181Z,7.10
2022-10-22T12:03:33.563Z,6.45
2022-10-22T12:06:12.707Z,6.72
2022-10-22T12:08:54.645Z,6.35
2022-10-22T12:11:37.623Z,6.68
2022-10-22T12:14:30.080Z,6.43
2022-10-22T12:17:18.180Z,6.20
2022-10-22T12:19:47.819Z,6.57
2022-10-22T12:22:21.870Z,6.70
2022-10-22T12:24:52.010Z,6.20
2022-10-22T12:27:23.436Z,6.60
2022-10-22T12:29:58.223Z,6.70
2022-10-22T12:32:34.648Z,6.63
2022-10-22T12:35:09.309Z,6.90
2022-10-22T12:37:37.789Z,7.25
2022-10-22T12:40:18.642Z,7.63
2022-10-22T12:42:51.787Z,6.43
2022-10-22T12:45:19.347Z,6.18
2022-10-22T12:47:55.576Z,5.88
2022-10-22T12:50:31.491Z,5.57
2022-10-22T12:52:59.333Z,5.50
2022-10-22T12:55:27.255Z,5.13
2022-10-22T12:57:54.408Z,4.45
2022-10-22T13:00:21.779Z,5.03
2022-10-22T13:02:49.214Z,4.20
2022-10-22T13:05:17.946Z,4.30
2022-10-22T13:07:50.922Z,4.72
2022-10-22T13:10:25.676Z,5.05
2022-10-22T13:12:57.605Z,5.32
2022-10-22T13:15:27.615Z,5.10
2022-10-22T13:18:33.149Z,4.20
2022-10-22T13:21:03.299Z,4.15
2022-10-22T13:23:33.359Z,3.70
2022-10-22T13:26:05.196Z,3.42
2022-10-22T13:28:32.934Z,3.88
2022-10-22T13:31:02.930Z,4.32
2022-10-22T13:33:34.577Z,4.63
2022-10-22T13:36:02.451Z,4.32
2022-10-22T13:38:29.659Z,4.85
2022-10-22T13:40:57.606Z,4.63
2022-10-22T13:43:25.492Z,5.03
2022-10-22T13:45:55.875Z,4.07
2022-10-22T13:48:25.457Z,4.20
2022-10-22T13:50:53.808Z,5.18
2022-10-22T13:53:26.688Z,4.30
2022-10-22T13:55:53.871Z,4.50
2022-10-22T13:58:25.787Z,5.20
2022-10-22T14:00:58.466Z,5.07
2022-10-22T14:03:29.707Z,5.25
2022-10-22T14:05:57.522Z,4.82
2022-10-22T14:08:26.356Z,4.95
2022-10-22T14:10:53.939Z,5.88
2022-10-22T14:13:21.768Z,5.47
2022-10-22T14:15:51.611Z,5.38
2022-10-22T14:18:25.520Z,5.27
2022-10-22T14:20:55.336Z,5.78
2022-10-22T14:23:25.727Z,5.53
2022-10-22T14:25:53.424Z,5.75
2022-10-22T14:28:20.515Z,5.70
2022-10-22T14:30:47.740Z,6.05
2022-10-22T14:33:21.555Z,6.30
2022-10-22T14:35:49.793Z,6.78
2022-10-22T14:38:17.070Z,6.40
2022-10-22T14:40:45.640Z,6.47
2022-10-22T14:43:33.871Z,6.57
2022-10-22T14:46:00.853Z,5.70
2022-10-22T14:48:27.821Z,6.43
2022-10-22T14:50:54.923Z,6.13
2022-10-22T14:53:21.946Z,6.38
2022-10-22T14:55:51.579Z,6.40
2022-10-22T14:58:18.778Z,5.60
2022-10-22T15:00:45.776Z,6.65
2022-10-22T15:03:12.826Z,6.85
2022-10-22T15:05:44.930Z,7.15
2022-10-22T15:08:13.698Z,7.32
2022-10-22T15:10:40.884Z,7.50
2022-10-22T15:13:08.138Z,7.55
2022-10-22T15:15:39.462Z,7.57
2022-10-22T15:18:07.467Z,7.90
2022-10-22T15:20:34.476Z,7.45
2022-10-22T15:23:01.389Z,7.32
2022-10-22T15:25:28.877Z,7.63
2022-10-22T15:28:00.750Z,8.25
2022-10-22T15:30:31.827Z,8.05
2022-10-22T15:32:58.876Z,9.20
2022-10-22T15:35:28.866Z,8.55
2022-10-22T15:37:55.912Z,8.50
2022-10-22T15:40:22.797Z,8.35
2022-10-22T15:42:49.821Z,8.93
2022-10-22T15:45:16.898Z,9.45
2022-10-22T15:47:49.172Z,8.27
2022-10-22T15:50:17.016Z,9.73
2022-10-22T15:52:43.956Z,9.10
2022-10-22T15:55:14.630Z,10.02
2022-10-22T15:57:41.964Z,8.93
2022-10-22T16:00:09.673Z,8.95
2022-10-22T16:02:39.844Z,9.30
2022-10-22T16:05:07.466Z,8.85
2022-10-22T16:07:34.370Z,9.32
2022-10-22T16:10:03.738Z,9.65
2022-10-22T16:12:30.925Z,9.23
2022-10-22T16:14:57.830Z,9.32
2022-10-22T16:17:24.892Z,9.55
2022-10-22T16:19:51.870Z,10.05
2022-10-22T16:22:18.863Z,9.60
2022-10-22T16:24:45.815Z,9.68
2022-10-22T16:27:12.777Z,9.70
2022-10-22T16:29:40.249Z,11.18
2022-10-22T16:32:07.675Z,10.27
2022-10-22T16:34:34.747Z,11.05
2022-10-22T16:37:02.718Z,10.60
2022-10-22T16:39:29.649Z,11.15
2022-10-22T16:41:56.577Z,10.77
2022-10-22T16:44:23.858Z,10.93
2022-10-22T16:46:50.800Z,9.95
2022-10-22T16:49:17.838Z,10.45
2022-10-22T16:51:44.933Z,10.77
2022-10-22T16:54:12.730Z,10.82
2022-10-22T16:56:40.043Z,11.32
2022-10-22T16:59:07.590Z,11.43
2022-10-22T17:01:38.122Z,10.68
2022-10-22T17:04:09.446Z,11.32
2022-10-22T17:06:36.485Z,11.35
2022-10-22T17:09:03.874Z,10.93
2022-10-22T17:11:35.714Z,11.60
2022-10-22T17:14:04.584Z,11.40
2022-10-22T17:16:31.619Z,11.10
2022-10-22T17:18:58.663Z,10.63
2022-10-22T17:21:25.770Z,11.70
2022-10-22T17:23:57.364Z,11.30
2022-10-22T17:26:26.579Z,11.25
2022-10-22T17:28:54.102Z,11.68
2022-10-22T17:31:24.542Z,10.95
2022-10-22T17:33:53.542Z,11.25
2022-10-22T17:36:22.012Z,12.10
2022-10-22T17:38:52.404Z,11.85
2022-10-22T17:41:24.931Z,11.88
2022-10-22T17:43:52.720Z,11.65
2022-10-22T17:46:24.743Z,12.10
2022-10-22T17:48:53.731Z,11.85
2022-10-22T17:51:21.660Z,11.43
2022-10-22T17:53:52.188Z,12.45
2022-10-22T17:56:22.111Z,10.70
2022-10-22T17:58:49.694Z,11.27
2022-10-22T18:01:31.445Z,11.57
2022-10-22T18:04:04.955Z,10.95
2022-10-22T18:06:32.585Z,10.90
2022-10-22T18:08:59.676Z,11.65
2022-10-22T18:11:28.290Z,10.85
2022-10-22T18:13:57.417Z,11.20
2022-10-22T18:16:25.826Z,10.73
2022-10-22T18:18:54.958Z,11.60
2022-10-22T18:21:24.139Z,10.75
2022-10-22T18:23:51.288Z,10.48
2022-10-22T18:26:21.405Z,10.77
2022-10-22T18:28:51.316Z,9.70
2022-10-22T18:31:20.582Z,10.98
2022-10-22T18:33:48.417Z,9.80
2022-10-22T18:36:19.303Z,9.13
2022-10-22T18:39:00.370Z,10.50
2022-10-22T18:41:29.594Z,9.50
2022-10-22T18:43:59.093Z,9.95
2022-10-22T18:46:27.153Z,9.20
2022-10-22T18:48:55.697Z,9.15
2022-10-22T18:51:25.751Z,9.45
2022-10-22T18:54:05.817Z,9.18
2022-10-22T18:56:43.860Z,9.93
2022-10-22T18:59:25.070Z,9.52
2022-10-22T19:01:54.546Z,9.40
2022-10-22T19:04:21.990Z,9.73
2022-10-22T19:06:49.044Z,9.80
2022-10-22T19:09:16.730Z,10.10
2022-10-22T19:11:45.218Z,10.25
2022-10-22T19:14:15.603Z,10.55
2022-10-22T19:16:42.740Z,9.82
2022-10-22T19:19:09.720Z,10.30
2022-10-22T19:21:37.982Z,10.75
2022-10-22T19:24:05.176Z,9.45
2022-10-22T19:26:32.651Z,10.10
2022-10-22T19:29:00.276Z,9.85
2022-10-22T19:31:30.124Z,10.05
2022-10-22T19:33:58.545Z,10.07
2022-10-22T19:36:28.315Z,10.40
2022-10-22T19:38:55.938Z,10.38
2022-10-22T19:41:24.981Z,9.43
2022-10-22T19:43:53.924Z,10.32
2022-10-22T19:46:23.104Z,10.35
2022-10-22T19:48:51.522Z,9.90
2022-10-22T19:51:27.549Z,10.35
2022-10-22T19:54:04.286Z,10.82
2022-10-22T19:56:33.883Z,11.10
2022-10-22T19:59:01.054Z,10.35
2022-10-22T20:01:28.361Z,10.75
2022-10-22T20:03:55.392Z,10.80
2022-10-22T20:06:22.340Z,9.45
2022-10-22T20:08:52.377Z,9.73
2022-10-22T20:11:25.292Z,10.93
2022-10-22T20:13:52.783Z,10.83
2022-10-22T20:16:23.267Z,10.35
2022-10-22T20:18:51.645Z,9.88
2022-10-22T20:21:19.894Z,10.90
2022-10-22T20:23:49.184Z,10.80
2022-10-22T20:26:16.139Z,10.32
2022-10-22T20:28:43.056Z,10.60
2022-10-22T20:31:12.065Z,10.35
2022-10-22T20:33:39.497Z,9.80
2022-10-22T20:36:09.708Z,9.30
2022-10-22T20:41:12.428Z,9.57
2022-10-22T20:46:06.414Z,9.45
2022-10-22T20:48:33.748Z,10.02
2022-10-22T20:51:01.811Z,9.68
2022-10-22T20:53:28.916Z,10.23
2022-10-22T20:55:59.063Z,9.68
2022-10-22T20:58:27.761Z,9.70
2022-10-22T21:00:55.577Z,10.50
2022-10-22T21:03:22.992Z,10.02
2022-10-22T21:05:50.451Z,10.38
2022-10-22T21:08:17.823Z,10.32
2022-10-22T21:10:49.262Z,11.02
2022-10-22T21:13:16.972Z,10.35
2022-10-22T21:15:44.620Z,10.32
2022-10-22T21:18:11.661Z,10.20
2022-10-22T21:20:41.974Z,10.23
2022-10-22T21:23:10.358Z,10.27
2022-10-22T21:25:40.800Z,10.38
2022-10-22T21:28:10.306Z,9.50
2022-10-22T21:30:37.388Z,9.43
2022-10-22T21:33:04.308Z,10.50
2022-10-22T21:35:32.511Z,9.57
2022-10-22T21:37:59.451Z,9.98
2022-10-22T21:40:27.669Z,10.50
2022-10-22T21:42:54.645Z,9.38
2022-10-22T21:45:22.575Z,9.52
2022-10-22T21:47:49.687Z,9.32
2022-10-22T21:50:16.838Z,9.73
2022-10-22T21:52:43.794Z,9.00
2022-10-22T21:55:10.889Z,9.23
2022-10-22T21:57:39.203Z,10.63
2022-10-22T22:00:08.239Z,9.57
2022-10-22T22:02:35.275Z,9.13
2022-10-22T22:05:02.223Z,9.82
2022-10-22T22:07:30.268Z,8.93
2022-10-22T22:09:57.264Z,10.15
2022-10-22T22:12:24.365Z,9.18
2022-10-22T22:14:51.247Z,9.45
2022-10-22T22:17:18.728Z,10.32
2022-10-22T22:19:45.635Z,9.65
2022-10-22T22:22:12.577Z,8.95
2022-10-22T22:24:39.962Z,9.73
2022-10-22T22:27:07.492Z,9.20
2022-10-22T22:29:34.824Z,9.57
2022-10-22T22:32:01.847Z,8.82
2022-10-22T22:34:28.861Z,8.82
2022-10-22T22:36:55.804Z,8.68
2022-10-22T22:39:23.638Z,9.13
2022-10-22T22:41:50.938Z,9.68
2022-10-22T22:44:18.113Z,9.23
2022-10-22T22:46:45.188Z,9.40
2022-10-22T22:49:13.426Z,9.43
2022-10-22T22:51:40.331Z,9.43
2022-10-22T22:54:07.514Z,11.30
2022-10-22T22:56:34.744Z,10.10
2022-10-22T22:59:02.644Z,10.48
2022-10-22T23:01:34.304Z,9.13
2022-10-22T23:04:13.190Z,10.63
2022-10-22T23:06:40.381Z,10.00
2022-10-22T23:09:09.939Z,10.23
2022-10-22T23:11:37.203Z,10.18
2022-10-22T23:14:06.379Z,9.75
2022-10-22T23:16:36.822Z,10.25
2022-10-22T23:19:05.544Z,10.13
2022-10-22T23:21:35.949Z,9.80
2022-10-22T23:24:06.078Z,9.93
2022-10-22T23:26:38.751Z,10.00
2022-10-22T23:29:09.148Z,10.32
2022-10-22T23:31:36.327Z,11.00
2022-10-22T23:34:03.566Z,11.15
2022-10-22T23:36:30.630Z,10.73
2022-10-22T23:38:57.664Z,10.45
2022-10-22T23:41:24.729Z,10.60
2022-10-22T23:43:51.758Z,10.80
2022-10-22T23:46:18.775Z,10.57
2022-10-22T23:48:45.839Z,10.40
2022-10-22T23:51:15.410Z,11.68
2022-10-22T23:53:44.311Z,11.27
2022-10-22T23:56:15.325Z,12.18
2022-10-22T23:58:42.730Z,12.40
